createdAt,value
2023-04-02T00:00:50.555Z,30.22
2023-04-02T00:01:50.590Z,30.68
2023-04-02T00:02:50.632Z,31.14
2023-04-02T00:03:50.648Z,30.33
2023-04-02T00:04:50.515Z,32.71
2023-04-02T00:05:50.755Z,33.91
2023-04-02T00:06:50.541Z,30.74
2023-04-02T00:07:50.500Z,32.49
2023-04-02T00:08:50.457Z,33.26
2023-04-02T00:09:50.516Z,29.19
2023-04-02T00:10:50.467Z,31.41
2023-04-02T00:11:50.470Z,32.85
2023-04-02T00:12:50.480Z,32.00
2023-04-02T00:13:50.434Z,33.68
2023-04-02T00:14:50.417Z,32.66
2023-04-02T00:15:50.455Z,30.42
2023-04-02T00:16:50.434Z,30.97
2023-04-02T00:17:50.472Z,31.33
2023-04-02T00:18:50.472Z,32.96
2023-04-02T00:19:50.393Z,30.11
2023-04-02T00:20:50.535Z,30.87
2023-04-02T00:21:50.438Z,31.92
2023-04-02T00:22:50.347Z,32.42
2023-04-02T00:23:50.401Z,31.04
2023-04-02T00:24:50.357Z,29.63
2023-04-02T00:25:50.368Z,30.42
2023-04-02T00:26:50.392Z,31.54
2023-04-02T00:27:50.387Z,31.43
2023-04-02T00:28:50.392Z,30.78
2023-04-02T00:29:50.337Z,32.95
2023-04-02T00:30:50.349Z,30.81
2023-04-02T00:31:50.424Z,32.01
2023-04-02T00:32:50.333Z,31.85
2023-04-02T00:33:50.365Z,27.98
2023-04-02T00:34:50.317Z,30.36
2023-04-02T00:35:50.388Z,27.69
2023-04-02T00:36:50.275Z,29.39
2023-04-02T00:37:50.298Z,28.03
2023-04-02T00:38:50.277Z,30.62
2023-04-02T00:39:50.254Z,28.25
2023-04-02T00:40:50.265Z,30.07
2023-04-02T00:41:50.266Z,27.57
2023-04-02T00:42:50.261Z,30.51
2023-04-02T00:43:50.246Z,30.72
2023-04-02T00:44:50.215Z,31.40
2023-04-02T00:45:50.323Z,32.58
2023-04-02T00:46:50.200Z,30.85
2023-04-02T00:47:50.193Z,34.61
2023-04-02T00:48:50.231Z,31.31
2023-04-02T00:49:50.170Z,31.86
2023-04-02T00:50:50.176Z,28.56
2023-04-02T00:51:50.190Z,33.00
2023-04-02T00:52:50.158Z,34.38
2023-04-02T00:53:50.201Z,29.20
2023-04-02T00:54:50.157Z,31.29
2023-04-02T00:55:50.163Z,32.40
2023-04-02T00:56:50.191Z,30.40
2023-04-02T00:57:50.184Z,29.22
2023-04-02T00:58:50.175Z,31.65
2023-04-02T00:59:50.188Z,31.28
2023-04-02T01:00:50.112Z,31.65
2023-04-02T01:01:50.147Z,28.07
2023-04-02T01:02:50.225Z,31.58
2023-04-02T01:03:50.145Z,28.90
2023-04-02T01:04:50.150Z,31.88
2023-04-02T01:05:50.069Z,29.35
2023-04-02T01:06:50.078Z,29.76
2023-04-02T01:07:50.050Z,28.98
2023-04-02T01:08:50.067Z,28.31
2023-04-02T01:09:50.114Z,26.72
2023-04-02T01:10:50.067Z,27.89
2023-04-02T01:11:50.044Z,27.16
2023-04-02T01:12:50.013Z,26.69
2023-04-02T01:13:50.018Z,28.37
2023-04-02T01:14:50.000Z,28.92
2023-04-02T01:15:50.075Z,30.99
2023-04-02T01:16:49.994Z,31.11
2023-04-02T01:17:50.040Z,27.92
2023-04-02T01:18:49.987Z,29.53
2023-04-02T01:19:49.998Z,27.48
2023-04-02T01:20:49.975Z,27.18
2023-04-02T01:21:49.972Z,27.94
2023-04-02T01:22:49.977Z,26.72
2023-04-02T01:23:49.971Z,31.06
2023-04-02T01:24:49.946Z,31.00
2023-04-02T01:25:49.953Z,27.20
2023-04-02T01:26:49.919Z,30.06
2023-04-02T01:27:49.907Z,30.61
2023-04-02T01:28:49.938Z,28.45
2023-04-02T01:29:49.925Z,30.49
2023-04-02T01:30:49.930Z,27.42
2023-04-02T01:31:49.932Z,27.46
2023-04-02T01:32:49.905Z,28.03
2023-04-02T01:33:49.913Z,33.73
2023-04-02T01:34:49.860Z,33.23
2023-04-02T01:35:49.891Z,30.61
2023-04-02T01:36:49.837Z,30.09
2023-04-02T01:37:49.886Z,31.52
2023-04-02T01:38:49.863Z,31.46
2023-04-02T01:39:49.812Z,31.53
2023-04-02T01:40:49.795Z,30.17
2023-04-02T01:41:49.793Z,27.71
2023-04-02T01:42:49.822Z,30.39
2023-04-02T01:43:49.814Z,32.48
2023-04-02T01:44:49.846Z,31.17
2023-04-02T01:45:49.837Z,32.94
2023-04-02T01:46:49.827Z,31.17
2023-04-02T01:47:49.837Z,34.20
2023-04-02T01:48:49.774Z,34.17
2023-04-02T01:49:49.739Z,29.94
2023-04-02T01:50:49.792Z,32.24
2023-04-02T01:51:49.774Z,31.07
2023-04-02T01:52:49.733Z,32.08
2023-04-02T01:53:49.714Z,31.74
2023-04-02T01:54:49.743Z,33.75
2023-04-02T01:55:49.924Z,28.99
2023-04-02T01:56:49.705Z,31.19
2023-04-02T01:57:49.737Z,29.44
2023-04-02T01:58:49.678Z,32.21
2023-04-02T01:59:49.669Z,30.75
2023-04-02T02:00:49.725Z,33.80
2023-04-02T02:01:49.694Z,32.20
2023-04-02T02:02:49.715Z,33.51
2023-04-02T02:03:49.707Z,32.00
2023-04-02T02:04:49.654Z,31.45
2023-04-02T02:05:49.665Z,29.47
2023-04-02T02:06:49.675Z,30.76
2023-04-02T02:07:49.635Z,30.24
2023-04-02T02:08:49.643Z,30.96
2023-04-02T02:09:49.684Z,31.79
2023-04-02T02:10:49.639Z,29.18
2023-04-02T02:11:49.699Z,31.45
2023-04-02T02:12:49.655Z,31.65
2023-04-02T02:13:49.600Z,30.08
2023-04-02T02:14:49.590Z,34.40
2023-04-02T02:15:49.581Z,30.53
2023-04-02T02:16:49.657Z,29.66
2023-04-02T02:17:49.663Z,31.54
2023-04-02T02:18:49.534Z,30.43
2023-04-02T02:19:49.556Z,31.32
2023-04-02T02:20:49.520Z,29.42
2023-04-02T02:21:49.564Z,29.52
2023-04-02T02:22:49.547Z,32.40
2023-04-02T02:23:49.505Z,29.39
2023-04-02T02:24:49.534Z,32.26
2023-04-02T02:25:49.478Z,32.75
2023-04-02T02:26:49.490Z,31.28
2023-04-02T02:27:49.503Z,30.60
2023-04-02T02:28:49.471Z,30.55
2023-04-02T02:29:49.516Z,32.59
2023-04-02T02:30:49.486Z,29.95
2023-04-02T02:31:49.523Z,29.92
2023-04-02T02:32:49.439Z,29.75
2023-04-02T02:33:49.445Z,32.52
2023-04-02T02:34:49.414Z,31.24
2023-04-02T02:35:49.425Z,32.45
2023-04-02T02:36:49.423Z,30.79
2023-04-02T02:37:49.422Z,31.89
2023-04-02T02:38:49.419Z,30.58
2023-04-02T02:39:49.393Z,31.09
2023-04-02T02:40:49.454Z,33.35
2023-04-02T02:41:49.411Z,33.49
2023-04-02T02:42:49.405Z,28.61
2023-04-02T02:43:49.362Z,33.86
2023-04-02T02:44:49.382Z,31.00
2023-04-02T02:45:49.363Z,32.19
2023-04-02T02:46:49.322Z,29.63
2023-04-02T02:47:49.445Z,33.80
2023-04-02T02:48:49.334Z,31.56
2023-04-02T02:49:49.311Z,32.60
2023-04-02T02:50:49.347Z,29.86
2023-04-02T02:51:49.340Z,30.66
2023-04-02T02:52:49.336Z,29.93
2023-04-02T02:53:49.294Z,31.61
2023-04-02T02:54:49.269Z,30.54
2023-04-02T02:55:49.307Z,31.56
2023-04-02T02:56:49.333Z,31.17
2023-04-02T02:57:49.301Z,31.98
2023-04-02T02:58:49.291Z,34.00
2023-04-02T02:59:49.280Z,28.48
2023-04-02T03:00:49.238Z,30.38
2023-04-02T03:01:49.352Z,32.73
2023-04-02T03:02:49.297Z,34.25
2023-04-02T03:03:49.391Z,30.75
2023-04-02T03:04:49.242Z,37.95
2023-04-02T03:05:49.243Z,33.86
2023-04-02T03:06:49.207Z,33.22
2023-04-02T03:07:49.213Z,32.55
2023-04-02T03:08:49.219Z,30.97
2023-04-02T03:09:49.189Z,32.36
2023-04-02T03:10:49.175Z,32.70
2023-04-02T03:11:49.178Z,30.43
2023-04-02T03:12:49.179Z,28.67
2023-04-02T03:13:49.166Z,31.26
2023-04-02T03:14:49.159Z,30.37
2023-04-02T03:15:49.193Z,34.15
2023-04-02T03:16:49.150Z,32.25
2023-04-02T03:17:49.159Z,27.16
2023-04-02T03:18:49.132Z,29.11
2023-04-02T03:19:49.123Z,30.40
2023-04-02T03:20:49.112Z,30.42
2023-04-02T03:21:49.172Z,30.03
2023-04-02T03:22:49.154Z,31.03
2023-04-02T03:23:49.158Z,30.40
2023-04-02T03:24:49.130Z,29.36
2023-04-02T03:25:49.111Z,29.09
2023-04-02T03:26:49.112Z,31.91
2023-04-02T03:27:49.157Z,30.65
2023-04-02T03:28:49.117Z,29.40
2023-04-02T03:29:49.129Z,31.60
2023-04-02T03:30:49.145Z,28.97
2023-04-02T03:31:49.139Z,28.16
2023-04-02T03:32:49.197Z,30.95
2023-04-02T03:33:49.157Z,30.90
2023-04-02T03:34:49.163Z,33.27
2023-04-02T03:35:49.199Z,31.83
2023-04-02T03:36:49.173Z,31.80
2023-04-02T03:37:49.200Z,28.76
2023-04-02T03:38:49.192Z,31.57
2023-04-02T03:39:49.197Z,30.90
2023-04-02T03:40:49.163Z,29.24
2023-04-02T03:41:49.222Z,30.33
2023-04-02T03:42:49.233Z,31.42
2023-04-02T03:43:49.196Z,30.04
2023-04-02T03:44:49.229Z,32.44
2023-04-02T03:45:49.204Z,33.03
2023-04-02T03:46:49.288Z,29.22
2023-04-02T03:47:49.345Z,30.79
2023-04-02T03:48:49.274Z,29.48
2023-04-02T03:49:49.281Z,28.92
2023-04-02T03:50:49.241Z,31.92
2023-04-02T03:51:49.276Z,30.65
2023-04-02T03:52:49.256Z,31.09
2023-04-02T03:53:49.214Z,31.09
2023-04-02T03:54:54.109Z,31.90
2023-04-02T03:55:50.257Z,32.12
2023-04-02T03:56:49.305Z,32.14
2023-04-02T03:57:49.252Z,28.65
2023-04-02T03:58:49.221Z,32.42
2023-04-02T03:59:49.228Z,30.19
2023-04-02T04:00:49.205Z,30.98
2023-04-02T04:01:49.242Z,29.01
2023-04-02T04:02:49.262Z,31.93
2023-04-02T04:03:49.252Z,31.51
2023-04-02T04:04:49.269Z,27.40
2023-04-02T04:05:49.167Z,28.15
2023-04-02T04:06:49.201Z,28.90
2023-04-02T04:07:49.192Z,27.27
2023-04-02T04:08:49.301Z,31.53
2023-04-02T04:09:49.160Z,28.75
2023-04-02T04:10:49.174Z,30.53
2023-04-02T04:11:49.136Z,31.83
2023-04-02T04:12:49.151Z,30.34
2023-04-02T04:13:49.128Z,30.87
2023-04-02T04:14:49.105Z,32.78
2023-04-02T04:15:49.114Z,29.74
2023-04-02T04:16:49.130Z,32.15
2023-04-02T04:17:49.209Z,28.62
2023-04-02T04:18:49.100Z,26.90
2023-04-02T04:19:49.078Z,29.82
2023-04-02T04:20:49.070Z,33.36
2023-04-02T04:21:49.079Z,30.41
2023-04-02T04:22:49.047Z,28.48
2023-04-02T04:23:49.069Z,26.79
2023-04-02T04:24:49.084Z,30.64
2023-04-02T04:25:49.029Z,30.96
2023-04-02T04:26:48.998Z,31.48
2023-04-02T04:27:49.009Z,32.62
2023-04-02T04:28:49.033Z,32.74
2023-04-02T04:29:49.019Z,28.43
2023-04-02T04:30:49.046Z,31.74
2023-04-02T04:31:49.107Z,28.56
2023-04-02T04:32:49.090Z,29.99
2023-04-02T04:33:49.059Z,29.02
2023-04-02T04:34:49.072Z,28.91
2023-04-02T04:35:49.120Z,32.03
2023-04-02T04:36:49.091Z,32.61
2023-04-02T04:37:49.084Z,31.73
2023-04-02T04:38:49.090Z,30.49
2023-04-02T04:39:49.111Z,27.50
2023-04-02T04:40:49.104Z,32.07
2023-04-02T04:41:49.146Z,32.49
2023-04-02T04:42:49.135Z,29.61
2023-04-02T04:43:49.162Z,29.72
2023-04-02T04:44:49.158Z,31.77
2023-04-02T04:45:49.221Z,30.71
2023-04-02T04:46:49.219Z,32.16
2023-04-02T04:47:49.365Z,30.98
2023-04-02T04:48:49.237Z,31.49
2023-04-02T04:49:49.232Z,31.32
2023-04-02T04:50:49.280Z,31.94
2023-04-02T04:51:49.276Z,30.95
2023-04-02T04:52:49.300Z,31.05
2023-04-02T04:53:49.363Z,29.04
2023-04-02T04:54:49.382Z,32.86
2023-04-02T04:55:49.349Z,30.61
2023-04-02T04:56:49.443Z,32.36
2023-04-02T04:57:49.401Z,30.06
2023-04-02T04:58:49.380Z,29.58
2023-04-02T04:59:49.406Z,30.58
2023-04-02T05:00:50.163Z,30.49
2023-04-02T05:01:49.529Z,32.14
2023-04-02T05:02:49.477Z,28.74
2023-04-02T05:03:49.508Z,33.05
2023-04-02T05:04:49.489Z,30.24
2023-04-02T05:05:49.544Z,31.46
2023-04-02T05:06:49.554Z,32.01
2023-04-02T05:07:49.571Z,31.50
2023-04-02T05:08:49.644Z,28.41
2023-04-02T05:09:49.606Z,30.78
2023-04-02T05:10:49.646Z,30.74
2023-04-02T05:11:49.649Z,28.56
2023-04-02T05:12:49.689Z,25.91
2023-04-02T05:13:49.663Z,29.85
2023-04-02T05:14:49.705Z,30.34
2023-04-02T05:15:49.776Z,29.61
2023-04-02T05:16:49.715Z,29.54
2023-04-02T05:17:49.804Z,28.44
2023-04-02T05:18:49.755Z,28.91
2023-04-02T05:19:49.754Z,29.76
2023-04-02T05:20:49.754Z,28.21
2023-04-02T05:21:49.759Z,27.94
2023-04-02T05:22:49.815Z,30.62
2023-04-02T05:23:49.926Z,31.79
2023-04-02T05:24:49.822Z,28.23
2023-04-02T05:25:49.918Z,31.58
2023-04-02T05:26:49.862Z,31.87
2023-04-02T05:27:49.887Z,27.23
2023-04-02T05:28:49.892Z,31.03
2023-04-02T05:29:49.908Z,29.48
2023-04-02T05:30:49.906Z,29.63
2023-04-02T05:31:49.998Z,26.79
2023-04-02T05:32:49.952Z,31.96
2023-04-02T05:33:49.976Z,32.29
2023-04-02T05:34:49.947Z,33.22
2023-04-02T05:35:49.995Z,32.24
2023-04-02T05:36:50.007Z,28.66
2023-04-02T05:37:50.060Z,31.38
2023-04-02T05:38:50.023Z,32.61
2023-04-02T05:39:50.010Z,28.33
2023-04-02T05:40:49.993Z,28.94
2023-04-02T05:41:50.044Z,29.40
2023-04-02T05:42:50.067Z,32.57
2023-04-02T05:43:50.066Z,27.41
2023-04-02T05:44:50.063Z,28.75
2023-04-02T05:45:50.056Z,28.70
2023-04-02T05:46:50.187Z,29.76
2023-04-02T05:47:50.116Z,32.82
2023-04-02T05:48:50.134Z,29.83
2023-04-02T05:49:50.114Z,32.20
2023-04-02T05:50:50.150Z,30.38
2023-04-02T05:51:50.216Z,32.34
2023-04-02T05:52:50.153Z,32.17
2023-04-02T05:53:50.170Z,28.28
2023-04-02T05:54:50.175Z,31.70
2023-04-02T05:55:50.185Z,30.68
2023-04-02T05:56:50.339Z,32.15
2023-04-02T05:58:07.025Z,28.91
2023-04-02T05:58:51.252Z,29.10
2023-04-02T05:59:50.153Z,29.53
2023-04-02T06:00:50.158Z,29.72
2023-04-02T06:01:50.155Z,30.07
2023-04-02T06:02:50.309Z,31.49
2023-04-02T06:03:50.208Z,31.30
2023-04-02T06:04:50.158Z,34.64
2023-04-02T06:05:50.141Z,31.57
2023-04-02T06:06:50.154Z,32.06
2023-04-02T06:07:50.154Z,32.54
2023-04-02T06:08:50.105Z,31.25
2023-04-02T06:09:50.118Z,32.60
2023-04-02T06:10:50.119Z,34.34
2023-04-02T06:11:50.142Z,33.37
2023-04-02T06:12:50.108Z,29.54
2023-04-02T06:13:50.112Z,34.31
2023-04-02T06:14:50.124Z,32.53
2023-04-02T06:15:50.056Z,32.51
2023-04-02T06:16:50.108Z,33.62
2023-04-02T06:17:50.116Z,32.51
2023-04-02T06:18:50.036Z,33.66
2023-04-02T06:19:50.040Z,31.32
2023-04-02T06:20:50.000Z,31.23
2023-04-02T06:21:50.073Z,29.68
2023-04-02T06:22:50.014Z,30.08
2023-04-02T06:23:50.009Z,30.16
2023-04-02T06:24:50.010Z,30.58
2023-04-02T06:25:49.982Z,30.31
2023-04-02T06:26:49.999Z,33.86
2023-04-02T06:27:50.051Z,33.61
2023-04-02T06:28:49.953Z,31.76
2023-04-02T06:29:50.030Z,32.70
2023-04-02T06:30:49.951Z,32.24
2023-04-02T06:31:49.960Z,33.06
2023-04-02T06:32:50.000Z,31.93
2023-04-02T06:33:49.950Z,31.61
2023-04-02T06:34:49.966Z,34.35
2023-04-02T06:35:49.902Z,34.55
2023-04-02T06:36:49.899Z,32.56
2023-04-02T06:37:49.958Z,35.10
2023-04-02T06:38:49.909Z,33.99
2023-04-02T06:39:49.887Z,34.33
2023-04-02T06:40:49.891Z,34.64
2023-04-02T06:41:49.881Z,34.24
2023-04-02T06:42:49.892Z,34.48
2023-04-02T06:43:49.921Z,37.10
2023-04-02T06:44:49.856Z,33.63
2023-04-02T06:45:49.856Z,33.61
2023-04-02T06:46:52.234Z,35.37
2023-04-02T06:47:49.933Z,33.66
2023-04-02T06:48:49.857Z,37.80
2023-04-02T06:49:49.829Z,34.25
2023-04-02T06:50:49.816Z,33.03
2023-04-02T06:51:49.794Z,35.57
2023-04-02T06:52:49.780Z,37.06
2023-04-02T06:53:49.801Z,35.36
2023-04-02T06:54:49.870Z,36.91
2023-04-02T06:55:49.799Z,36.27
2023-04-02T06:56:49.847Z,38.33
2023-04-02T06:57:49.764Z,39.19
2023-04-02T06:58:49.852Z,38.12
2023-04-02T06:59:49.769Z,37.95
2023-04-02T07:00:49.813Z,36.82
2023-04-02T07:01:49.852Z,39.05
2023-04-02T07:02:49.812Z,40.22
2023-04-02T07:03:49.773Z,41.00
2023-04-02T07:04:49.761Z,41.64
2023-04-02T07:05:49.689Z,39.51
2023-04-02T07:06:49.686Z,42.01
2023-04-02T07:07:49.749Z,41.91
2023-04-02T07:08:49.698Z,43.29
2023-04-02T07:09:49.792Z,43.60
2023-04-02T07:10:49.678Z,42.21
2023-04-02T07:11:49.674Z,45.13
2023-04-02T07:12:49.640Z,43.24
2023-04-02T07:13:49.741Z,45.27
2023-04-02T07:14:49.651Z,41.27
2023-04-02T07:15:49.647Z,43.55
2023-04-02T07:16:49.625Z,45.16
2023-04-02T07:17:49.651Z,45.31
2023-04-02T07:18:49.629Z,44.95
2023-04-02T07:19:49.704Z,45.06
2023-04-02T07:20:50.359Z,45.37
2023-04-02T07:21:49.582Z,48.14
2023-04-02T07:22:49.599Z,49.56
2023-04-02T07:23:49.592Z,46.74
2023-04-02T07:24:49.621Z,47.57
2023-04-02T07:25:49.581Z,46.24
2023-04-02T07:26:49.527Z,43.17
2023-04-02T07:27:49.576Z,45.57
2023-04-02T07:28:49.578Z,45.42
2023-04-02T07:29:49.551Z,46.76
2023-04-02T07:30:49.532Z,45.40
2023-04-02T07:31:49.761Z,46.78
2023-04-02T07:32:49.605Z,47.69
2023-04-02T07:33:49.511Z,46.44
2023-04-02T07:34:49.521Z,45.33
2023-04-02T07:35:49.507Z,45.47
2023-04-02T07:36:49.468Z,46.47
2023-04-02T07:37:49.481Z,47.31
2023-04-02T07:38:49.454Z,48.14
2023-04-02T07:39:49.449Z,45.86
2023-04-02T07:40:49.426Z,45.38
2023-04-02T07:41:49.463Z,46.16
2023-04-02T07:42:49.442Z,46.91
2023-04-02T07:43:49.428Z,47.03
2023-04-02T07:44:49.430Z,45.06
2023-04-02T07:45:49.394Z,46.22
2023-04-02T07:46:49.411Z,46.71
2023-04-02T07:47:49.455Z,47.72
2023-04-02T07:48:49.417Z,48.09
2023-04-02T07:49:49.477Z,46.73
2023-04-02T07:50:49.469Z,45.91
2023-04-02T07:51:49.467Z,45.51
2023-04-02T07:52:49.543Z,48.02
2023-04-02T07:53:49.544Z,43.13
2023-04-02T07:54:49.601Z,43.68
2023-04-02T07:55:49.626Z,43.18
2023-04-02T07:56:49.704Z,45.23
2023-04-02T07:57:49.719Z,44.50
2023-04-02T07:58:49.787Z,41.69
2023-04-02T07:59:49.800Z,44.36
2023-04-02T08:00:49.855Z,43.62
2023-04-02T08:01:49.892Z,43.48
2023-04-02T08:02:49.927Z,42.51
2023-04-02T08:03:51.286Z,41.72
2023-04-02T08:04:49.945Z,40.98
2023-04-02T08:05:49.940Z,40.83
2023-04-02T08:06:49.940Z,41.66
2023-04-02T08:07:49.944Z,41.55
2023-04-02T08:08:49.907Z,39.44
2023-04-02T08:09:49.907Z,41.64
2023-04-02T08:10:49.910Z,39.97
2023-04-02T08:11:49.892Z,40.94
2023-04-02T08:12:49.874Z,40.88
2023-04-02T08:13:49.887Z,40.10
2023-04-02T08:14:49.897Z,40.30
2023-04-02T08:15:49.846Z,39.12
2023-04-02T08:16:49.920Z,42.27
2023-04-02T08:17:49.925Z,43.10
2023-04-02T08:18:49.861Z,40.75
2023-04-02T08:19:55.029Z,41.88
2023-04-02T08:20:50.856Z,42.21
2023-04-02T08:21:49.836Z,42.55
2023-04-02T08:22:49.812Z,42.91
2023-04-02T08:23:49.805Z,43.09
2023-04-02T08:24:49.823Z,45.27
2023-04-02T08:25:49.762Z,42.59
2023-04-02T08:26:49.794Z,40.61
2023-04-02T08:27:49.772Z,42.74
2023-04-02T08:28:49.789Z,42.85
2023-04-02T08:29:49.754Z,41.90
2023-04-02T08:30:49.788Z,40.10
2023-04-02T08:31:49.755Z,40.22
2023-04-02T08:32:49.765Z,40.67
2023-04-02T08:33:49.861Z,42.28
2023-04-02T08:34:49.829Z,42.39
2023-04-02T08:35:49.983Z,42.28
2023-04-02T08:36:49.964Z,41.52
2023-04-02T08:37:50.018Z,42.98
2023-04-02T08:38:50.113Z,42.64
2023-04-02T08:39:50.163Z,41.75
2023-04-02T08:40:50.272Z,41.90
2023-04-02T08:41:50.296Z,43.57
2023-04-02T08:42:50.341Z,43.51
2023-04-02T08:43:50.389Z,42.69
2023-04-02T08:44:50.462Z,43.65
2023-04-02T08:45:50.534Z,43.79
2023-04-02T08:46:50.579Z,44.45
2023-04-02T08:47:50.658Z,42.77
2023-04-02T08:48:50.686Z,44.15
2023-04-02T08:49:50.742Z,44.99
2023-04-02T08:50:50.800Z,43.55
2023-04-02T08:51:50.813Z,44.53
2023-04-02T08:52:50.875Z,43.72
2023-04-02T08:53:50.929Z,45.75
2023-04-02T08:54:50.991Z,46.75
2023-04-02T08:55:51.043Z,42.30
2023-04-02T08:56:51.109Z,42.71
2023-04-02T08:57:51.106Z,41.33
2023-04-02T08:58:51.174Z,43.80
2023-04-02T08:59:51.232Z,42.69
2023-04-02T09:00:51.280Z,44.02
2023-04-02T09:01:51.385Z,42.51
2023-04-02T09:02:51.375Z,42.20
2023-04-02T09:03:51.394Z,45.20
2023-04-02T09:04:51.496Z,43.68
2023-04-02T09:05:51.479Z,44.33
2023-04-02T09:06:51.595Z,44.36
2023-04-02T09:07:51.586Z,44.29
2023-04-02T09:08:51.583Z,43.10
2023-04-02T09:09:51.645Z,44.25
2023-04-02T09:10:51.655Z,40.48
2023-04-02T09:11:51.714Z,42.81
2023-04-02T09:12:51.774Z,44.06
2023-04-02T09:13:51.828Z,41.70
2023-04-02T09:14:51.845Z,42.45
2023-04-02T09:15:51.914Z,40.65
2023-04-02T09:16:51.953Z,38.89
2023-04-02T09:17:54.460Z,38.59
2023-04-02T09:18:51.981Z,41.49
2023-04-02T09:19:51.984Z,37.55
2023-04-02T09:20:51.989Z,39.94
2023-04-02T09:21:51.952Z,37.93
2023-04-02T09:22:51.967Z,39.08
2023-04-02T09:23:51.947Z,38.26
2023-04-02T09:24:51.946Z,35.33
2023-04-02T09:26:03.531Z,37.52
2023-04-02T09:26:52.953Z,37.82
2023-04-02T09:27:51.938Z,37.96
2023-04-02T09:28:51.938Z,38.19
2023-04-02T09:29:51.864Z,35.54
2023-04-02T09:30:51.903Z,35.39
2023-04-02T09:31:51.921Z,33.43
2023-04-02T09:32:51.917Z,34.85
2023-04-02T09:33:51.869Z,32.18
2023-04-02T09:34:51.889Z,32.71
2023-04-02T09:35:51.909Z,32.08
2023-04-02T09:36:51.860Z,31.93
2023-04-02T09:37:51.844Z,32.30
2023-04-02T09:38:51.848Z,29.40
2023-04-02T09:39:51.848Z,29.75
2023-04-02T09:40:51.914Z,32.10
2023-04-02T09:42:02.855Z,30.58
2023-04-02T09:42:52.948Z,30.73
2023-04-02T09:43:51.932Z,30.83
2023-04-02T09:44:51.939Z,30.26
2023-04-02T09:45:51.902Z,28.06
2023-04-02T09:46:51.959Z,30.83
2023-04-02T09:47:51.980Z,27.90
2023-04-02T09:48:51.880Z,27.80
2023-04-02T09:49:51.893Z,28.79
2023-04-02T09:50:51.885Z,28.74
2023-04-02T09:51:51.889Z,29.41
2023-04-02T09:52:51.900Z,27.74
2023-04-02T09:53:51.853Z,27.11
2023-04-02T09:54:51.843Z,30.04
2023-04-02T09:55:51.814Z,27.45
2023-04-02T09:56:51.848Z,27.77
2023-04-02T09:57:51.865Z,26.87
2023-04-02T09:58:51.876Z,25.00
2023-04-02T09:59:51.876Z,26.21
2023-04-02T10:00:51.948Z,26.75
2023-04-02T10:01:51.969Z,25.30
2023-04-02T10:02:52.027Z,30.55
2023-04-02T10:03:52.170Z,27.46
2023-04-02T10:04:52.120Z,26.97
2023-04-02T10:05:52.096Z,26.74
2023-04-02T10:06:52.178Z,26.38
2023-04-02T10:07:52.229Z,25.74
2023-04-02T10:08:52.291Z,27.34
2023-04-02T10:09:52.277Z,26.71
2023-04-02T10:10:52.305Z,27.28
2023-04-02T10:11:52.326Z,29.57
2023-04-02T10:12:52.376Z,26.39
2023-04-02T10:13:52.435Z,26.88
2023-04-02T10:14:52.436Z,26.50
2023-04-02T10:15:52.492Z,28.91
2023-04-02T10:16:52.680Z,28.28
2023-04-02T10:17:52.631Z,26.84
2023-04-02T10:18:52.617Z,26.09
2023-04-02T10:19:52.697Z,27.55
2023-04-02T10:20:52.751Z,28.02
2023-04-02T10:21:52.804Z,27.62
2023-04-02T10:22:52.799Z,27.25
2023-04-02T10:23:52.877Z,28.01
2023-04-02T10:24:52.929Z,28.55
2023-04-02T10:25:53.005Z,26.96
2023-04-02T10:26:53.090Z,28.65
2023-04-02T10:27:53.155Z,27.56
2023-04-02T10:28:53.171Z,26.18
2023-04-02T10:29:53.240Z,26.63
2023-04-02T10:30:53.296Z,26.86
2023-04-02T10:31:53.417Z,28.57
2023-04-02T10:32:53.411Z,27.34
2023-04-02T10:33:53.443Z,28.23
2023-04-02T10:34:53.570Z,28.43
2023-04-02T10:35:53.583Z,25.51
2023-04-02T10:36:53.632Z,30.07
2023-04-02T10:37:53.726Z,28.41
2023-04-02T10:38:53.813Z,29.04
2023-04-02T10:39:53.818Z,26.34
2023-04-02T10:40:55.342Z,25.91
2023-04-02T10:41:53.832Z,30.38
2023-04-02T10:42:53.834Z,28.19
2023-04-02T10:43:53.791Z,30.46
2023-04-02T10:44:53.836Z,30.19
2023-04-02T10:45:53.883Z,29.23
2023-04-02T10:46:53.802Z,27.16
2023-04-02T10:47:53.829Z,27.92
2023-04-02T10:48:53.781Z,26.78
2023-04-02T10:49:53.809Z,29.97
2023-04-02T10:50:53.830Z,26.95
2023-04-02T10:51:53.764Z,26.49
2023-04-02T10:52:55.505Z,29.37
2023-04-02T10:53:53.782Z,29.46
2023-04-02T10:54:53.770Z,27.90
2023-04-02T10:55:53.800Z,29.41
2023-04-02T10:56:53.801Z,26.90
2023-04-02T10:57:53.737Z,26.06
2023-04-02T10:58:55.060Z,26.22
2023-04-02T10:59:53.717Z,26.44
2023-04-02T11:00:53.724Z,27.15
2023-04-02T11:01:53.833Z,26.71
2023-04-02T11:02:53.734Z,26.07
2023-04-02T11:03:53.768Z,27.27
2023-04-02T11:04:55.355Z,27.16
2023-04-02T11:05:53.676Z,27.32
2023-04-02T11:07:03.495Z,27.50
2023-04-02T11:07:54.648Z,27.61
2023-04-02T11:08:53.634Z,27.72
2023-04-02T11:09:53.649Z,28.08
2023-04-02T11:10:53.619Z,27.60
2023-04-02T11:11:53.648Z,27.07
2023-04-02T11:12:53.612Z,27.17
2023-04-02T11:13:53.609Z,26.65
2023-04-02T11:14:53.621Z,25.53
2023-04-02T11:15:53.830Z,26.31
2023-04-02T11:16:53.599Z,28.32
2023-04-02T11:17:53.651Z,25.20
2023-04-02T11:18:53.690Z,27.08
2023-04-02T11:19:53.724Z,26.22
2023-04-02T11:20:53.792Z,28.36
2023-04-02T11:21:59.404Z,29.12
2023-04-02T11:22:54.789Z,29.28
2023-04-02T11:23:53.779Z,29.38
2023-04-02T11:24:53.788Z,30.28
2023-04-02T11:25:53.798Z,28.60
2023-04-02T11:26:53.765Z,27.39
2023-04-02T11:27:53.747Z,25.69
2023-04-02T11:28:53.762Z,27.22
2023-04-02T11:29:53.778Z,26.29
2023-04-02T11:30:53.700Z,30.08
2023-04-02T11:31:53.746Z,28.72
2023-04-02T11:32:53.820Z,27.51
2023-04-02T11:33:53.743Z,27.61
2023-04-02T11:35:03.476Z,29.31
2023-04-02T11:35:54.770Z,29.49
2023-04-02T11:36:53.721Z,29.39
2023-04-02T11:37:53.719Z,29.11
2023-04-02T11:38:54.898Z,27.11
2023-04-02T11:39:53.730Z,25.35
2023-04-02T11:40:53.735Z,29.89
2023-04-02T11:41:53.808Z,28.41
2023-04-02T11:42:53.915Z,25.00
2023-04-02T11:43:53.861Z,29.01
2023-04-02T11:44:53.854Z,28.83
2023-04-02T11:45:53.966Z,27.23
2023-04-02T11:46:53.982Z,26.81
2023-04-02T11:47:53.977Z,28.18
2023-04-02T11:48:54.003Z,31.04
2023-04-02T11:49:54.009Z,31.83
2023-04-02T11:50:54.072Z,32.42
2023-04-02T11:52:02.321Z,30.83
2023-04-02T11:52:55.060Z,31.09
2023-04-02T11:53:54.097Z,31.18
2023-04-02T11:54:54.049Z,31.95
2023-04-02T11:55:54.057Z,33.64
2023-04-02T11:56:54.155Z,36.30
2023-04-02T11:57:54.009Z,36.53
2023-04-02T11:58:54.074Z,34.03
2023-04-02T11:59:54.031Z,34.35
2023-04-02T12:00:53.987Z,35.86
2023-04-02T12:01:53.989Z,35.94
2023-04-02T12:02:54.027Z,35.94
2023-04-02T12:03:54.039Z,37.84
2023-04-02T12:04:53.975Z,35.82
2023-04-02T12:05:53.980Z,34.28
2023-04-02T12:06:54.004Z,37.60
2023-04-02T12:07:54.029Z,36.45
2023-04-02T12:08:58.106Z,38.74
2023-04-02T12:09:54.027Z,38.83
2023-04-02T12:10:53.993Z,38.35
2023-04-02T12:11:53.976Z,39.23
2023-04-02T12:12:54.051Z,38.56
2023-04-02T12:13:53.975Z,39.77
2023-04-02T12:14:53.971Z,37.82
2023-04-02T12:15:53.985Z,36.65
2023-04-02T12:16:53.961Z,40.91
2023-04-02T12:17:53.975Z,38.28
2023-04-02T12:18:54.091Z,40.00
2023-04-02T12:19:53.929Z,40.56
2023-04-02T12:20:53.965Z,39.50
2023-04-02T12:21:53.921Z,39.80
2023-04-02T12:22:53.926Z,39.65
2023-04-02T12:23:53.937Z,40.69
2023-04-02T12:24:53.895Z,38.93
2023-04-02T12:25:53.901Z,39.17
2023-04-02T12:26:53.907Z,40.95
2023-04-02T12:27:53.853Z,38.99
2023-04-02T12:28:53.894Z,40.44
2023-04-02T12:29:53.871Z,40.58
2023-04-02T12:30:53.876Z,42.18
2023-04-02T12:31:53.841Z,42.92
2023-04-02T12:32:53.889Z,40.59
2023-04-02T12:33:53.858Z,40.77
2023-04-02T12:34:53.805Z,42.99
2023-04-02T12:35:53.820Z,41.80
2023-04-02T12:36:53.814Z,40.15
2023-04-02T12:37:53.848Z,42.03
2023-04-02T12:38:53.829Z,42.95
2023-04-02T12:39:53.779Z,39.82
2023-04-02T12:40:53.784Z,42.77
2023-04-02T12:41:53.801Z,41.40
2023-04-02T12:42:53.796Z,41.92
2023-04-02T12:43:53.765Z,41.16
2023-04-02T12:44:53.774Z,40.23
2023-04-02T12:45:53.802Z,43.53
2023-04-02T12:46:53.732Z,42.38
2023-04-02T12:47:53.791Z,43.81
2023-04-02T12:48:53.748Z,43.87
2023-04-02T12:49:53.739Z,42.11
2023-04-02T12:50:53.695Z,43.38
2023-04-02T12:51:53.705Z,43.60
2023-04-02T12:52:53.720Z,40.03